createdAt,value
2022-11-16T00:00:11.392Z,8.52
2022-11-16T00:03:06.159Z,8.52
2022-11-16T00:05:38.379Z,8.50
2022-11-16T00:08:10.445Z,8.49
2022-11-16T00:10:42.946Z,8.49
2022-11-16T00:13:15.113Z,8.50
2022-11-16T00:15:57.215Z,8.50
2022-11-16T00:18:29.628Z,8.52
2022-11-16T00:21:04.289Z,8.52
2022-11-16T00:23:39.383Z,8.49
2022-11-16T00:26:10.778Z,8.47
2022-11-16T00:28:43.304Z,8.46
2022-11-16T00:31:15.728Z,8.44
2022-11-16T00:33:48.588Z,8.40
2022-11-16T00:36:21.371Z,8.38
2022-11-16T00:38:55.406Z,8.37
2022-11-16T00:41:27.704Z,8.37
2022-11-16T00:43:59.974Z,8.38
2022-11-16T00:46:32.448Z,8.38
2022-11-16T00:49:05.680Z,8.38
2022-11-16T00:51:39.218Z,8.37
2022-11-16T00:54:12.158Z,8.35
2022-11-16T00:56:44.809Z,8.36
2022-11-16T00:59:17.360Z,8.35
2022-11-16T01:01:49.755Z,8.36
2022-11-16T01:04:22.184Z,8.38
2022-11-16T01:06:54.384Z,8.39
2022-11-16T01:09:30.154Z,8.41
2022-11-16T01:12:11.105Z,8.42
2022-11-16T01:14:45.324Z,8.41
2022-11-16T01:17:17.565Z,8.40
2022-11-16T01:19:49.682Z,8.37
2022-11-16T01:22:21.953Z,8.36
2022-11-16T01:24:54.121Z,8.34
2022-11-16T01:27:27.801Z,8.34
2022-11-16T01:30:00.806Z,8.33
2022-11-16T01:32:33.236Z,8.33
2022-11-16T01:35:06.737Z,8.34
2022-11-16T01:37:40.262Z,8.33
2022-11-16T01:40:14.635Z,8.35
2022-11-16T01:42:48.462Z,8.38
2022-11-16T01:45:23.576Z,8.40
2022-11-16T01:47:58.212Z,8.41
2022-11-16T01:50:35.802Z,8.39
2022-11-16T01:53:10.171Z,8.35
2022-11-16T01:55:53.445Z,8.34
2022-11-16T01:58:34.500Z,8.32
2022-11-16T02:01:22.091Z,8.32
2022-11-16T02:03:57.089Z,8.30
2022-11-16T02:06:59.412Z,8.27
2022-11-16T02:09:58.480Z,8.26
2022-11-16T02:13:01.011Z,8.26
2022-11-16T02:15:42.474Z,8.28
2022-11-16T02:18:30.101Z,8.26
2022-11-16T02:21:27.717Z,8.25
2022-11-16T02:24:12.508Z,8.23
2022-11-16T02:27:23.074Z,8.23
2022-11-16T02:29:57.267Z,8.24
2022-11-16T02:32:32.657Z,8.23
2022-11-16T02:35:11.074Z,8.23
2022-11-16T02:37:49.847Z,8.25
2022-11-16T02:40:25.162Z,8.28
2022-11-16T02:43:06.445Z,8.30
2022-11-16T02:45:42.993Z,8.33
2022-11-16T02:48:22.253Z,8.34
2022-11-16T02:50:55.010Z,8.34
2022-11-16T02:53:28.302Z,8.35
2022-11-16T02:56:01.215Z,8.37
2022-11-16T02:58:34.053Z,8.34
2022-11-16T03:01:10.055Z,8.28
2022-11-16T03:03:46.601Z,8.28
2022-11-16T03:06:24.377Z,8.30
2022-11-16T03:09:05.580Z,8.31
2022-11-16T03:12:00.637Z,8.32
2022-11-16T03:14:41.740Z,8.36
2022-11-16T03:17:20.719Z,8.37
2022-11-16T03:20:00.341Z,8.37
2022-11-16T03:22:40.285Z,8.38
2022-11-16T03:25:17.494Z,8.38
2022-11-16T03:27:55.629Z,8.34
2022-11-16T03:30:33.149Z,8.33
2022-11-16T03:33:15.863Z,8.34
2022-11-16T03:35:55.227Z,8.35
2022-11-16T03:38:29.912Z,8.37
2022-11-16T03:41:07.062Z,8.37
2022-11-16T03:43:40.538Z,8.35
2022-11-16T03:46:13.472Z,8.34
2022-11-16T03:48:45.845Z,8.35
2022-11-16T03:51:28.511Z,8.34
2022-11-16T03:54:00.729Z,8.34
2022-11-16T03:56:33.587Z,8.34
2022-11-16T03:59:05.759Z,8.35
2022-11-16T04:01:43.292Z,8.33
2022-11-16T04:04:31.087Z,8.31
2022-11-16T04:07:21.623Z,8.27
2022-11-16T04:10:11.264Z,8.25
2022-11-16T04:13:04.626Z,8.21
2022-11-16T04:15:54.486Z,8.19
2022-11-16T04:18:44.754Z,8.20
2022-11-16T04:21:42.393Z,8.20
2022-11-16T04:24:18.352Z,8.20
2022-11-16T04:27:12.204Z,8.17
2022-11-16T04:29:45.240Z,8.17
2022-11-16T04:32:35.309Z,8.19
2022-11-16T04:35:25.905Z,8.18
2022-11-16T04:38:00.056Z,8.09
2022-11-16T04:40:38.312Z,8.06
2022-11-16T04:43:10.730Z,8.05
2022-11-16T04:46:02.302Z,8.06
2022-11-16T04:48:39.257Z,8.06
2022-11-16T04:51:11.911Z,8.04
2022-11-16T04:53:44.329Z,8.03
2022-11-16T04:56:22.190Z,8.02
2022-11-16T04:58:54.562Z,8.00
2022-11-16T05:01:40.797Z,7.98
2022-11-16T05:04:13.584Z,7.98
2022-11-16T05:06:45.890Z,7.95
2022-11-16T05:09:18.339Z,7.92
2022-11-16T05:11:51.174Z,7.91
2022-11-16T05:14:23.418Z,7.91
2022-11-16T05:16:56.253Z,7.93
2022-11-16T05:19:46.776Z,7.95
2022-11-16T05:22:19.352Z,7.93
2022-11-16T05:24:51.650Z,7.89
2022-11-16T05:27:25.690Z,7.86
2022-11-16T05:29:58.576Z,7.88
2022-11-16T05:32:31.385Z,7.88
2022-11-16T05:35:04.879Z,7.88
2022-11-16T05:37:38.429Z,7.87
2022-11-16T05:40:13.788Z,7.86
2022-11-16T05:42:50.859Z,7.87
2022-11-16T05:45:23.408Z,7.87
2022-11-16T05:47:56.345Z,7.89
2022-11-16T05:50:28.580Z,7.90
2022-11-16T05:53:23.491Z,7.91
2022-11-16T05:55:56.187Z,7.88
2022-11-16T05:58:28.855Z,7.88
2022-11-16T06:01:02.351Z,7.89
2022-11-16T06:03:35.796Z,7.88
2022-11-16T06:08:59.164Z,7.87
2022-11-16T06:11:35.757Z,7.89
2022-11-16T06:14:09.255Z,7.91
2022-11-16T06:16:41.730Z,7.90
2022-11-16T06:19:14.485Z,7.86
2022-11-16T06:21:46.685Z,7.80
2022-11-16T06:24:22.355Z,7.73
2022-11-16T06:26:54.650Z,7.71
2022-11-16T06:29:27.177Z,7.70
2022-11-16T06:31:59.652Z,7.67
2022-11-16T06:34:31.974Z,7.61
2022-11-16T06:37:05.678Z,7.58
2022-11-16T06:39:38.180Z,7.56
2022-11-16T06:42:10.757Z,7.53
2022-11-16T06:44:43.823Z,7.53
2022-11-16T06:47:16.681Z,7.49
2022-11-16T06:49:48.926Z,7.47
2022-11-16T06:52:25.014Z,7.46
2022-11-16T06:54:57.230Z,7.47
2022-11-16T06:57:29.885Z,7.46
2022-11-16T07:00:02.438Z,7.43
2022-11-16T07:02:37.218Z,7.42
2022-11-16T07:05:10.854Z,7.40
2022-11-16T07:07:44.297Z,7.40
2022-11-16T07:10:16.743Z,7.41
2022-11-16T07:12:49.396Z,7.38
2022-11-16T07:15:22.412Z,7.38
2022-11-16T07:17:54.604Z,7.39
2022-11-16T07:20:27.215Z,7.38
2022-11-16T07:23:02.627Z,7.35
2022-11-16T07:25:35.692Z,7.29
2022-11-16T07:28:08.577Z,7.23
2022-11-16T07:30:41.492Z,7.18
2022-11-16T07:33:19.415Z,7.13
2022-11-16T07:36:18.031Z,7.11
2022-11-16T07:38:50.233Z,7.11
2022-11-16T07:41:23.337Z,7.09
2022-11-16T07:44:05.613Z,7.05
2022-11-16T07:46:48.165Z,7.03
2022-11-16T07:49:22.010Z,7.06
2022-11-16T07:51:58.609Z,7.09
2022-11-16T07:54:40.121Z,7.11
2022-11-16T07:57:12.752Z,7.12
2022-11-16T07:59:46.047Z,7.11
2022-11-16T08:02:18.216Z,7.11
2022-11-16T08:04:51.179Z,7.11
2022-11-16T08:07:24.015Z,7.08
2022-11-16T08:10:00.271Z,7.08
2022-11-16T08:12:32.825Z,7.08
2022-11-16T08:15:05.536Z,7.05
2022-11-16T08:17:37.972Z,7.06
2022-11-16T08:20:12.751Z,7.07
2022-11-16T08:22:45.902Z,7.10
2022-11-16T08:25:18.505Z,7.08
2022-11-16T08:27:50.647Z,7.08
2022-11-16T08:30:24.020Z,7.06
2022-11-16T08:32:56.520Z,7.08
2022-11-16T08:35:28.739Z,7.12
2022-11-16T08:38:07.693Z,7.16
2022-11-16T08:40:58.215Z,7.19
2022-11-16T08:43:31.253Z,7.21
2022-11-16T08:46:04.424Z,7.27
2022-11-16T08:48:37.270Z,7.30
2022-11-16T08:51:19.669Z,7.31
2022-11-16T08:54:00.150Z,7.34
2022-11-16T08:56:32.934Z,7.34
2022-11-16T08:59:05.046Z,7.33
2022-11-16T09:01:37.591Z,7.31
2022-11-16T09:04:10.104Z,7.29
2022-11-16T09:06:42.326Z,7.26
2022-11-16T09:09:14.490Z,7.23
2022-11-16T09:11:46.586Z,7.20
2022-11-16T09:14:18.754Z,7.13
2022-11-16T09:16:50.946Z,7.10
2022-11-16T09:19:23.769Z,7.09
2022-11-16T09:21:55.848Z,7.08
2022-11-16T09:24:28.269Z,7.11
2022-11-16T09:27:02.026Z,7.14
2022-11-16T09:29:34.114Z,7.16
2022-11-16T09:32:06.904Z,7.19
2022-11-16T09:34:39.336Z,7.22
2022-11-16T09:37:11.518Z,7.24
2022-11-16T09:39:43.549Z,7.23
2022-11-16T09:42:29.854Z,7.23
2022-11-16T09:45:06.496Z,7.22
2022-11-16T09:47:49.242Z,7.15
2022-11-16T09:50:40.083Z,7.15
2022-11-16T09:53:27.733Z,7.16
2022-11-16T09:56:05.670Z,7.11
2022-11-16T09:58:45.206Z,7.07
2022-11-16T10:01:28.328Z,7.01
2022-11-16T10:04:06.691Z,6.97
2022-11-16T10:06:48.451Z,6.99
2022-11-16T10:09:21.118Z,6.96
2022-11-16T10:12:08.082Z,6.95
2022-11-16T10:15:37.546Z,6.95
2022-11-16T10:18:19.132Z,7.00
2022-11-16T10:21:08.835Z,6.99
2022-11-16T10:23:57.666Z,6.98
2022-11-16T10:26:38.679Z,6.98
2022-11-16T10:29:23.911Z,6.98
2022-11-16T10:32:11.626Z,7.01
2022-11-16T10:34:51.140Z,7.05
2022-11-16T10:37:25.664Z,7.07
2022-11-16T10:39:57.832Z,7.03
2022-11-16T10:42:36.146Z,7.00
2022-11-16T10:45:20.734Z,7.01
2022-11-16T10:47:58.326Z,7.03
2022-11-16T10:50:36.180Z,7.08
2022-11-16T10:53:13.132Z,7.11
2022-11-16T10:55:45.658Z,7.13
2022-11-16T10:58:17.816Z,7.14
2022-11-16T11:00:52.088Z,7.13
2022-11-16T11:03:34.016Z,7.10
2022-11-16T11:06:13.942Z,7.08
2022-11-16T11:08:46.083Z,7.10
2022-11-16T11:11:42.212Z,7.11
2022-11-16T11:14:16.633Z,7.14
2022-11-16T11:16:53.442Z,7.11
2022-11-16T11:19:29.959Z,7.06
2022-11-16T11:22:03.019Z,7.01
2022-11-16T11:24:44.301Z,6.97
2022-11-16T11:27:24.599Z,6.94
2022-11-16T11:29:59.775Z,6.92
2022-11-16T11:32:32.891Z,6.95
2022-11-16T11:35:06.784Z,6.92
2022-11-16T11:37:40.657Z,6.88
2022-11-16T11:40:26.205Z,6.87
2022-11-16T11:42:59.082Z,6.85
2022-11-16T11:45:48.010Z,6.80
2022-11-16T11:48:35.743Z,6.73
2022-11-16T11:51:18.048Z,6.71
2022-11-16T11:53:55.686Z,6.71
2022-11-16T11:56:30.423Z,6.68
2022-11-16T11:59:04.488Z,6.65
2022-11-16T12:01:51.352Z,6.63
2022-11-16T12:05:11.495Z,6.59
2022-11-16T12:07:57.640Z,6.53
2022-11-16T12:10:39.666Z,6.48
2022-11-16T12:13:34.597Z,6.46
2022-11-16T12:16:19.913Z,6.42
2022-11-16T12:19:04.986Z,6.37
2022-11-16T12:21:50.466Z,6.34
2022-11-16T12:24:42.628Z,6.33
2022-11-16T12:27:29.069Z,6.32
2022-11-16T12:30:09.472Z,6.32
2022-11-16T12:33:00.809Z,6.31
2022-11-16T12:35:44.704Z,6.33
2022-11-16T12:38:30.439Z,6.37
2022-11-16T12:41:21.577Z,6.43
2022-11-16T12:44:00.632Z,6.43
2022-11-16T12:46:46.649Z,6.39
2022-11-16T12:49:39.432Z,6.34
2022-11-16T12:52:26.366Z,6.26
2022-11-16T12:55:28.889Z,6.25
2022-11-16T12:58:19.726Z,6.25
2022-11-16T13:01:04.929Z,6.29
2022-11-16T13:03:43.060Z,6.30
2022-11-16T13:06:20.015Z,6.33
2022-11-16T13:09:02.883Z,6.31
2022-11-16T13:11:39.379Z,6.29
2022-11-16T13:14:18.356Z,6.28
2022-11-16T13:16:52.267Z,6.27
2022-11-16T13:19:25.258Z,6.24
2022-11-16T13:22:03.749Z,6.20
2022-11-16T13:24:53.833Z,6.16
2022-11-16T13:27:33.568Z,6.12
2022-11-16T13:30:16.037Z,6.12
2022-11-16T13:33:12.091Z,6.11
2022-11-16T13:35:44.676Z,6.11
2022-11-16T13:38:36.783Z,6.02
2022-11-16T13:41:29.530Z,5.95
2022-11-16T13:44:02.062Z,5.84
2022-11-16T13:46:55.662Z,5.79
2022-11-16T13:49:36.580Z,5.74
2022-11-16T13:52:23.146Z,5.66
2022-11-16T13:54:59.270Z,5.58
2022-11-16T13:57:32.517Z,5.54
2022-11-16T14:00:25.169Z,5.53
2022-11-16T14:05:56.941Z,5.55
2022-11-16T14:08:52.586Z,5.45
2022-11-16T14:11:38.848Z,5.37
2022-11-16T14:14:13.921Z,5.28
2022-11-16T14:16:51.267Z,5.23
2022-11-16T14:19:55.210Z,5.17
2022-11-16T14:22:54.880Z,5.10
2022-11-16T14:25:34.862Z,4.99
2022-11-16T14:28:19.471Z,4.91
2022-11-16T14:31:01.856Z,4.84
2022-11-16T14:33:37.384Z,4.76
2022-11-16T14:36:11.541Z,4.69
2022-11-16T14:38:44.810Z,4.62
2022-11-16T14:41:24.200Z,4.59
2022-11-16T14:43:58.617Z,4.58
2022-11-16T14:46:34.422Z,4.57
2022-11-16T14:49:13.527Z,4.52
2022-11-16T14:51:49.789Z,4.53
2022-11-16T14:54:38.576Z,4.62
2022-11-16T14:57:19.780Z,4.61
2022-11-16T15:00:08.634Z,4.61
2022-11-16T15:02:42.076Z,4.62
2022-11-16T15:05:18.864Z,4.62
2022-11-16T15:07:54.082Z,4.61
2022-11-16T15:10:28.346Z,4.61
2022-11-16T15:13:00.615Z,4.59
2022-11-16T15:15:34.111Z,4.53
2022-11-16T15:18:14.963Z,4.49
2022-11-16T15:20:53.026Z,4.44
2022-11-16T15:23:30.317Z,4.39
2022-11-16T15:26:03.703Z,4.34
2022-11-16T15:28:35.886Z,4.31
2022-11-16T15:31:09.628Z,4.28
2022-11-16T15:33:45.252Z,4.29
2022-11-16T15:36:38.925Z,4.36
2022-11-16T15:39:17.749Z,4.43
2022-11-16T15:41:50.345Z,4.48
2022-11-16T15:44:24.542Z,4.51
2022-11-16T15:46:58.096Z,4.49
2022-11-16T15:49:33.588Z,4.49
2022-11-16T15:52:06.166Z,4.47
2022-11-16T15:54:52.096Z,4.43
2022-11-16T15:57:25.225Z,4.42
2022-11-16T15:59:58.853Z,4.40
2022-11-16T16:02:32.864Z,4.38
2022-11-16T16:05:05.107Z,4.35
2022-11-16T16:07:41.835Z,4.34
2022-11-16T16:10:25.782Z,4.33
2022-11-16T16:12:59.434Z,4.32
2022-11-16T16:15:36.268Z,4.27
2022-11-16T16:18:40.507Z,4.24
2022-11-16T16:21:14.002Z,4.23
2022-11-16T16:23:50.072Z,4.24
2022-11-16T16:26:23.102Z,4.35
2022-11-16T16:28:55.064Z,4.39
2022-11-16T16:31:26.959Z,4.42
2022-11-16T16:33:59.657Z,4.47
2022-11-16T16:36:31.978Z,4.45
2022-11-16T16:39:04.098Z,4.44
2022-11-16T16:41:36.290Z,4.46
2022-11-16T16:44:15.116Z,4.47
2022-11-16T16:46:47.080Z,4.45
2022-11-16T16:49:19.066Z,4.42
2022-11-16T16:51:50.999Z,4.42
2022-11-16T16:54:22.915Z,4.42
2022-11-16T16:56:54.829Z,4.42
2022-11-16T16:59:27.330Z,4.42
2022-11-16T17:02:00.476Z,4.40
2022-11-16T17:04:33.382Z,4.35
2022-11-16T17:07:05.430Z,4.32
2022-11-16T17:09:37.743Z,4.33
2022-11-16T17:12:11.498Z,4.42
2022-11-16T17:14:44.038Z,4.45
2022-11-16T17:17:15.963Z,4.49
2022-11-16T17:19:48.364Z,4.52
2022-11-16T17:22:20.992Z,4.48
2022-11-16T17:24:52.954Z,4.48
2022-11-16T17:27:24.951Z,4.49
2022-11-16T17:29:58.177Z,4.49
2022-11-16T17:32:30.818Z,4.50
2022-11-16T17:35:02.809Z,4.47
2022-11-16T17:37:34.699Z,4.41
2022-11-16T17:40:08.031Z,4.38
2022-11-16T17:42:39.928Z,4.36
2022-11-16T17:45:13.142Z,4.33
2022-11-16T17:47:45.234Z,4.33
2022-11-16T17:50:17.758Z,4.31
2022-11-16T17:52:49.723Z,4.29
2022-11-16T17:55:21.815Z,4.35
2022-11-16T17:57:53.700Z,4.39
2022-11-16T18:00:25.950Z,4.44
2022-11-16T18:02:57.806Z,4.49
2022-11-16T18:05:30.948Z,4.47
2022-11-16T18:08:02.912Z,4.45
2022-11-16T18:10:36.598Z,4.44
2022-11-16T18:13:08.861Z,4.41
2022-11-16T18:15:42.562Z,4.39
2022-11-16T18:18:14.735Z,4.37
2022-11-16T18:20:50.883Z,4.38
2022-11-16T18:23:23.063Z,4.39
2022-11-16T18:25:55.129Z,4.38
2022-11-16T18:28:27.100Z,4.39
2022-11-16T18:31:06.971Z,4.39
2022-11-16T18:33:40.073Z,4.38
2022-11-16T18:36:13.233Z,4.48
2022-11-16T18:38:45.236Z,4.52
2022-11-16T18:41:20.379Z,4.56
2022-11-16T18:43:53.900Z,4.61
2022-11-16T18:46:27.529Z,4.64
2022-11-16T18:49:00.129Z,4.61
2022-11-16T18:51:32.198Z,4.61
2022-11-16T18:54:04.289Z,4.62
2022-11-16T18:56:36.406Z,4.63
2022-11-16T18:59:08.317Z,4.61
2022-11-16T19:01:40.716Z,4.58
2022-11-16T19:04:13.294Z,4.56
2022-11-16T19:06:45.283Z,4.55
2022-11-16T19:09:17.357Z,4.53
2022-11-16T19:11:50.873Z,4.52
2022-11-16T19:14:22.736Z,4.53
2022-11-16T19:16:57.245Z,4.53
2022-11-16T19:19:29.963Z,4.60
2022-11-16T19:22:02.032Z,4.60
2022-11-16T19:24:33.994Z,4.62
2022-11-16T19:27:06.122Z,4.65
2022-11-16T19:29:38.073Z,4.64
2022-11-16T19:32:10.087Z,4.64
2022-11-16T19:34:41.999Z,4.61
2022-11-16T19:37:14.144Z,4.60
2022-11-16T19:39:46.440Z,4.61
2022-11-16T19:42:18.391Z,4.59
2022-11-16T19:44:50.340Z,4.58
2022-11-16T19:47:24.294Z,4.55
2022-11-16T19:49:56.313Z,4.53
2022-11-16T19:52:28.328Z,4.50
2022-11-16T19:55:00.497Z,4.47
2022-11-16T19:57:32.845Z,4.45
2022-11-16T20:00:05.069Z,4.44
2022-11-16T20:02:38.820Z,4.53
2022-11-16T20:05:11.695Z,4.49
2022-11-16T20:07:44.780Z,4.51
2022-11-16T20:10:17.543Z,4.53
2022-11-16T20:12:50.145Z,4.47
2022-11-16T20:15:24.010Z,4.48
2022-11-16T20:17:56.053Z,4.51
2022-11-16T20:20:27.941Z,4.56
2022-11-16T20:22:59.916Z,4.57
2022-11-16T20:25:31.840Z,4.55
2022-11-16T20:28:04.695Z,4.52
2022-11-16T20:30:36.918Z,4.48
2022-11-16T20:33:08.893Z,4.47
2022-11-16T20:35:40.792Z,4.42
2022-11-16T20:38:12.782Z,4.36
2022-11-16T20:40:44.748Z,4.34
2022-11-16T20:43:17.093Z,4.34
2022-11-16T20:45:54.908Z,4.34
2022-11-16T20:48:26.834Z,4.40
2022-11-16T20:50:58.770Z,4.41
2022-11-16T20:53:30.759Z,4.44
2022-11-16T20:56:03.519Z,4.46
2022-11-16T20:58:36.298Z,4.42
2022-11-16T21:01:09.990Z,4.42
2022-11-16T21:03:44.648Z,4.43
2022-11-16T21:06:17.155Z,4.41
2022-11-16T21:08:49.478Z,4.39
2022-11-16T21:11:25.023Z,4.39
2022-11-16T21:14:15.115Z,4.38
2022-11-16T21:16:47.526Z,4.33
2022-11-16T21:19:19.540Z,4.27
2022-11-16T21:21:51.438Z,4.25
2022-11-16T21:24:24.926Z,4.23
2022-11-16T21:26:56.849Z,4.22
2022-11-16T21:29:29.120Z,4.30
2022-11-16T21:32:01.059Z,4.32
2022-11-16T21:34:38.780Z,4.34
2022-11-16T21:37:12.300Z,4.34
2022-11-16T21:39:44.552Z,4.31
2022-11-16T21:42:16.439Z,4.29
2022-11-16T21:44:48.318Z,4.27
2022-11-16T21:47:21.153Z,4.26
2022-11-16T21:50:24.842Z,4.25
2022-11-16T21:52:45.514Z,4.25
2022-11-16T21:55:17.554Z,4.24
2022-11-16T21:57:50.026Z,4.22
2022-11-16T22:00:23.170Z,4.19
2022-11-16T22:02:55.288Z,4.17
2022-11-16T22:05:45.171Z,4.14
2022-11-16T22:08:17.574Z,4.13
2022-11-16T22:10:53.384Z,4.08
2022-11-16T22:13:25.341Z,4.10
2022-11-16T22:15:57.385Z,4.21
2022-11-16T22:18:29.733Z,4.26
2022-11-16T22:21:02.178Z,4.28
2022-11-16T22:23:35.200Z,4.29
2022-11-16T22:26:10.284Z,4.29
2022-11-16T22:28:42.579Z,4.32
2022-11-16T22:31:16.002Z,4.33
2022-11-16T22:33:52.447Z,4.32
2022-11-16T22:36:24.361Z,4.31
2022-11-16T22:38:57.252Z,4.28
2022-11-16T22:41:29.228Z,4.27
2022-11-16T22:44:01.192Z,4.25
2022-11-16T22:46:33.155Z,4.18
2022-11-16T22:49:05.121Z,4.16
2022-11-16T22:51:37.210Z,4.14
2022-11-16T22:54:12.555Z,4.10
2022-11-16T22:56:45.209Z,4.08
2022-11-16T22:59:17.225Z,4.11
2022-11-16T23:01:49.390Z,4.17
2022-11-16T23:04:21.277Z,4.17
2022-11-16T23:06:56.766Z,4.17
2022-11-16T23:09:28.901Z,4.17
2022-11-16T23:12:18.441Z,4.14
2022-11-16T23:15:08.503Z,4.10
2022-11-16T23:17:40.623Z,4.08
2022-11-16T23:20:31.989Z,4.07
2022-11-16T23:23:21.518Z,4.03
2022-11-16T23:26:13.962Z,3.98
2022-11-16T23:28:46.025Z,3.96
2022-11-16T23:31:18.168Z,3.92
2022-11-16T23:33:50.240Z,3.86
2022-11-16T23:36:22.303Z,3.78
2022-11-16T23:38:54.411Z,3.73
2022-11-16T23:41:45.177Z,3.70
2022-11-16T23:44:17.373Z,3.69
2022-11-16T23:46:52.912Z,3.75
2022-11-16T23:49:25.164Z,3.80
2022-11-16T23:51:57.563Z,3.82
2022-11-16T23:54:29.648Z,3.85
2022-11-16T23:57:01.745Z,3.83
2022-11-16T23:59:33.704Z,3.80
